createdAt,value
2023-01-25T00:01:56.127Z,9.97
2023-01-25T00:04:23.413Z,9.37
2023-01-25T00:06:50.721Z,9.50
2023-01-25T00:09:17.909Z,9.80
2023-01-25T00:11:44.920Z,9.93
2023-01-25T00:14:12.700Z,10.33
2023-01-25T00:16:40.039Z,10.17
2023-01-25T00:19:07.959Z,10.00
2023-01-25T00:21:35.232Z,10.57
2023-01-25T00:24:02.623Z,10.37
2023-01-25T00:26:35.751Z,10.00
2023-01-25T00:29:03.476Z,10.57
2023-01-25T00:31:41.878Z,9.77
2023-01-25T00:34:26.302Z,9.67
2023-01-25T00:37:20.603Z,9.63
2023-01-25T00:39:47.455Z,9.93
2023-01-25T00:42:16.093Z,9.87
2023-01-25T00:44:42.962Z,9.10
2023-01-25T00:47:11.273Z,9.13
2023-01-25T00:49:39.500Z,10.57
2023-01-25T00:52:07.190Z,10.20
2023-01-25T00:54:33.905Z,10.20
2023-01-25T00:57:00.516Z,10.00
2023-01-25T00:59:27.072Z,9.80
2023-01-25T01:01:54.466Z,9.77
2023-01-25T01:04:24.983Z,9.17
2023-01-25T01:06:55.958Z,9.30
2023-01-25T01:09:23.536Z,9.50
2023-01-25T01:11:50.325Z,9.43
2023-01-25T01:14:16.902Z,8.80
2023-01-25T01:16:43.511Z,8.97
2023-01-25T01:19:10.157Z,9.17
2023-01-25T01:21:36.802Z,10.07
2023-01-25T01:24:03.497Z,9.77
2023-01-25T01:26:30.198Z,8.57
2023-01-25T01:28:58.478Z,9.67
2023-01-25T01:31:25.596Z,9.37
2023-01-25T01:33:53.830Z,9.37
2023-01-25T01:36:22.934Z,9.50
2023-01-25T01:38:49.960Z,9.20
2023-01-25T01:41:17.530Z,9.17
2023-01-25T01:43:44.113Z,9.87
2023-01-25T01:46:35.075Z,10.07
2023-01-25T01:49:16.341Z,10.13
2023-01-25T01:51:48.321Z,9.77
2023-01-25T01:54:27.389Z,9.60
2023-01-25T01:57:05.988Z,9.30
2023-01-25T01:59:40.343Z,9.43
2023-01-25T02:02:07.350Z,8.77
2023-01-25T02:04:34.296Z,9.13
2023-01-25T02:07:11.164Z,9.70
2023-01-25T02:09:37.882Z,9.80
2023-01-25T02:12:07.575Z,9.73
2023-01-25T02:14:34.686Z,10.27
2023-01-25T02:17:01.422Z,10.20
2023-01-25T02:20:15.703Z,11.00
2023-01-25T02:22:54.996Z,9.90
2023-01-25T02:25:21.915Z,10.23
2023-01-25T02:27:54.417Z,10.20
2023-01-25T02:30:21.648Z,10.00
2023-01-25T02:32:48.689Z,10.10
2023-01-25T02:35:24.983Z,9.77
2023-01-25T02:37:52.141Z,9.87
2023-01-25T02:40:18.905Z,9.63
2023-01-25T02:42:46.324Z,9.70
2023-01-25T02:45:16.648Z,10.33
2023-01-25T02:47:43.196Z,10.80
2023-01-25T02:50:10.619Z,10.13
2023-01-25T02:52:37.202Z,9.93
2023-01-25T02:55:03.957Z,9.70
2023-01-25T02:57:30.513Z,9.67
2023-01-25T02:59:57.072Z,10.80
2023-01-25T03:02:23.759Z,10.23
2023-01-25T03:04:51.129Z,10.20
2023-01-25T03:07:17.752Z,10.27
2023-01-25T03:09:44.350Z,10.63
2023-01-25T03:12:10.937Z,9.90
2023-01-25T03:14:37.495Z,10.50
2023-01-25T03:17:04.725Z,10.27
2023-01-25T03:19:31.388Z,10.67
2023-01-25T03:21:58.976Z,11.53
2023-01-25T03:24:25.711Z,10.63
2023-01-25T03:27:10.855Z,9.97
2023-01-25T03:29:38.104Z,10.37
2023-01-25T03:32:05.186Z,10.43
2023-01-25T03:34:31.935Z,10.43
2023-01-25T03:36:58.540Z,11.23
2023-01-25T03:39:25.260Z,10.37
2023-01-25T03:41:51.821Z,11.00
2023-01-25T03:44:18.367Z,10.03
2023-01-25T03:46:45.102Z,10.27
2023-01-25T03:49:11.830Z,10.80
2023-01-25T03:51:38.587Z,10.77
2023-01-25T03:54:05.499Z,10.80
2023-01-25T03:56:32.068Z,11.17
2023-01-25T03:58:58.638Z,11.03
2023-01-25T04:01:25.369Z,11.03
2023-01-25T04:03:52.133Z,10.50
2023-01-25T04:06:18.689Z,11.30
2023-01-25T04:08:45.271Z,11.43
2023-01-25T04:11:11.852Z,11.60
2023-01-25T04:13:39.458Z,11.50
2023-01-25T04:16:08.101Z,11.70
2023-01-25T04:18:34.743Z,11.77
2023-01-25T04:21:01.413Z,11.43
2023-01-25T04:23:28.059Z,11.40
2023-01-25T04:25:59.221Z,11.13
2023-01-25T04:28:26.494Z,11.80
2023-01-25T04:30:57.501Z,11.57
2023-01-25T04:33:24.835Z,12.40
2023-01-25T04:35:51.696Z,12.57
2023-01-25T04:38:18.615Z,11.73
2023-01-25T04:40:45.505Z,12.17
2023-01-25T04:43:13.888Z,11.57
2023-01-25T04:45:40.535Z,12.63
2023-01-25T04:48:12.308Z,12.33
2023-01-25T04:50:43.041Z,12.50
2023-01-25T04:53:11.151Z,12.20
2023-01-25T04:55:37.777Z,12.87
2023-01-25T04:58:05.024Z,12.80
2023-01-25T05:00:32.389Z,12.73
2023-01-25T05:02:59.156Z,12.57
2023-01-25T05:05:25.769Z,12.23
2023-01-25T05:07:52.385Z,13.47
2023-01-25T05:10:19.010Z,13.97
2023-01-25T05:12:45.595Z,13.70
2023-01-25T05:15:12.529Z,12.97
2023-01-25T05:17:39.212Z,13.70
2023-01-25T05:20:06.264Z,12.97
2023-01-25T05:22:32.881Z,14.00
2023-01-25T05:24:59.460Z,12.37
2023-01-25T05:27:33.702Z,13.57
2023-01-25T05:30:00.420Z,13.27
2023-01-25T05:32:27.172Z,13.93
2023-01-25T05:34:53.777Z,14.20
2023-01-25T05:37:21.812Z,13.13
2023-01-25T05:39:48.561Z,14.63
2023-01-25T05:42:17.688Z,13.97
2023-01-25T05:44:47.097Z,13.97
2023-01-25T05:47:16.063Z,13.00
2023-01-25T05:49:42.705Z,13.53
2023-01-25T05:52:14.452Z,14.83
2023-01-25T05:54:41.336Z,13.40
2023-01-25T05:57:07.995Z,13.60
2023-01-25T05:59:34.569Z,13.47
2023-01-25T06:02:01.300Z,14.60
2023-01-25T06:04:27.990Z,14.73
2023-01-25T06:06:54.597Z,14.00
2023-01-25T06:09:22.314Z,15.50
2023-01-25T06:11:49.325Z,15.17
2023-01-25T06:14:15.941Z,13.63
2023-01-25T06:16:42.571Z,11.03
2023-01-25T06:19:09.118Z,11.40
2023-01-25T06:21:37.004Z,12.70
2023-01-25T06:24:05.161Z,10.67
2023-01-25T06:26:31.862Z,9.57
2023-01-25T06:28:58.576Z,10.30
2023-01-25T06:31:25.662Z,10.00
2023-01-25T06:33:52.735Z,9.63
2023-01-25T06:36:21.182Z,10.23
2023-01-25T06:38:51.820Z,9.97
2023-01-25T06:41:19.221Z,8.10
2023-01-25T06:43:46.841Z,8.17
2023-01-25T06:46:13.850Z,8.10
2023-01-25T06:48:42.798Z,8.30
2023-01-25T06:51:12.011Z,8.13
2023-01-25T06:53:41.438Z,8.07
2023-01-25T06:56:13.710Z,8.10
2023-01-25T06:58:41.107Z,8.27
2023-01-25T07:01:15.510Z,8.53
2023-01-25T07:03:42.720Z,8.77
2023-01-25T07:06:10.962Z,8.93
2023-01-25T07:08:38.105Z,9.00
2023-01-25T07:11:07.160Z,9.47
2023-01-25T07:13:34.330Z,8.70
2023-01-25T07:16:03.862Z,8.80
2023-01-25T07:18:31.582Z,8.77
2023-01-25T07:21:06.485Z,9.47
2023-01-25T07:23:34.468Z,9.60
2023-01-25T07:26:02.021Z,9.47
2023-01-25T07:28:28.905Z,10.93
2023-01-25T07:30:55.499Z,10.80
2023-01-25T07:33:22.086Z,10.87
2023-01-25T07:35:50.806Z,10.57
2023-01-25T07:38:17.747Z,11.27
2023-01-25T07:40:50.825Z,12.00
2023-01-25T07:43:17.374Z,11.10
2023-01-25T07:45:48.554Z,10.90
2023-01-25T07:48:17.031Z,11.83
2023-01-25T07:50:46.470Z,11.53
2023-01-25T07:53:13.768Z,11.63
2023-01-25T07:55:40.329Z,12.60
2023-01-25T07:58:06.946Z,11.80
2023-01-25T08:00:33.536Z,11.40
2023-01-25T08:03:00.090Z,12.07
2023-01-25T08:05:26.649Z,11.50
2023-01-25T08:07:53.284Z,12.13
2023-01-25T08:10:19.854Z,12.70
2023-01-25T08:12:46.727Z,12.07
2023-01-25T08:15:14.321Z,13.47
2023-01-25T08:17:41.064Z,13.00
2023-01-25T08:20:08.788Z,12.73
2023-01-25T08:22:35.745Z,12.47
2023-01-25T08:25:03.447Z,13.13
2023-01-25T08:27:30.088Z,12.83
2023-01-25T08:29:56.710Z,13.40
2023-01-25T08:32:23.511Z,14.30
2023-01-25T08:34:50.169Z,14.57
2023-01-25T08:37:16.767Z,15.20
2023-01-25T08:39:43.381Z,14.67
2023-01-25T08:42:10.016Z,14.27
2023-01-25T08:44:36.597Z,14.70
2023-01-25T08:47:03.164Z,15.20
2023-01-25T08:49:31.106Z,15.77
2023-01-25T08:51:58.425Z,13.80
2023-01-25T08:54:25.071Z,13.40
2023-01-25T08:56:52.000Z,13.67
2023-01-25T08:59:18.630Z,13.77
2023-01-25T09:01:45.269Z,13.60
2023-01-25T09:04:11.824Z,13.00
2023-01-25T09:06:38.777Z,14.20
2023-01-25T09:09:05.500Z,12.73
2023-01-25T09:11:34.469Z,13.17
2023-01-25T09:14:01.026Z,13.10
2023-01-25T09:16:30.630Z,13.10
2023-01-25T09:18:58.932Z,13.67
2023-01-25T09:21:26.125Z,12.03
2023-01-25T09:24:09.126Z,12.30
2023-01-25T09:26:38.945Z,13.30
2023-01-25T09:29:07.694Z,12.50
2023-01-25T09:31:34.929Z,12.53
2023-01-25T09:34:02.011Z,13.70
2023-01-25T09:36:28.576Z,13.03
2023-01-25T09:38:56.697Z,12.17
2023-01-25T09:41:41.999Z,12.33
2023-01-25T09:44:36.423Z,13.10
2023-01-25T09:47:18.306Z,14.27
2023-01-25T09:50:19.895Z,15.93
2023-01-25T09:53:16.027Z,13.77
2023-01-25T09:55:43.300Z,13.70
2023-01-25T09:58:19.264Z,14.40
2023-01-25T10:00:48.138Z,13.67
2023-01-25T10:03:42.763Z,12.93
2023-01-25T10:06:13.763Z,14.20
2023-01-25T10:09:23.303Z,14.03
2023-01-25T10:11:50.073Z,13.63
2023-01-25T10:14:21.612Z,12.87
2023-01-25T10:16:48.186Z,13.00
2023-01-25T10:19:40.823Z,12.80
2023-01-25T10:22:16.130Z,13.23
2023-01-25T10:25:12.138Z,12.53
2023-01-25T10:28:03.729Z,12.80
2023-01-25T10:30:46.215Z,12.80
2023-01-25T10:33:19.675Z,13.50
2023-01-25T10:35:48.525Z,12.50
2023-01-25T10:38:27.935Z,11.90
2023-01-25T10:41:02.438Z,11.77
2023-01-25T10:43:29.259Z,11.83
2023-01-25T10:45:55.873Z,12.40
2023-01-25T10:48:29.067Z,16.77
2023-01-25T10:50:57.472Z,12.63
2023-01-25T10:53:36.392Z,13.93
2023-01-25T10:56:09.189Z,13.90
2023-01-25T10:58:38.716Z,13.47
2023-01-25T11:01:08.042Z,12.90
2023-01-25T11:03:36.253Z,13.17
2023-01-25T11:06:03.005Z,13.07
2023-01-25T11:08:42.089Z,12.60
2023-01-25T11:11:23.009Z,13.30
2023-01-25T11:13:49.844Z,13.40
2023-01-25T11:16:29.951Z,14.87
2023-01-25T11:18:58.898Z,15.40
2023-01-25T11:21:33.925Z,15.07
2023-01-25T11:24:06.705Z,16.30
2023-01-25T11:26:36.276Z,15.67
2023-01-25T11:29:17.664Z,15.30
2023-01-25T11:31:49.904Z,15.23
2023-01-25T11:34:19.314Z,15.30
2023-01-25T11:37:06.706Z,15.50
2023-01-25T11:39:46.681Z,14.50
2023-01-25T11:42:33.200Z,15.00
2023-01-25T11:45:36.149Z,14.00
2023-01-25T11:48:20.301Z,13.90
2023-01-25T11:51:18.677Z,14.00
2023-01-25T11:54:06.280Z,13.97
2023-01-25T11:56:50.456Z,14.87
2023-01-25T12:00:03.634Z,14.97
2023-01-25T12:02:46.788Z,14.53
2023-01-25T12:05:42.783Z,16.50
2023-01-25T12:08:46.306Z,16.37
2023-01-25T12:11:34.764Z,16.37
2023-01-25T12:14:26.398Z,16.90
2023-01-25T12:17:21.977Z,16.70
2023-01-25T12:20:18.713Z,17.30
2023-01-25T12:23:20.496Z,18.27
2023-01-25T12:26:15.989Z,17.60
2023-01-25T12:28:48.237Z,17.50
2023-01-25T12:31:25.377Z,16.67
2023-01-25T12:34:11.456Z,15.80
2023-01-25T12:36:43.899Z,15.10
2023-01-25T12:39:30.229Z,16.77
2023-01-25T12:42:18.525Z,14.83
2023-01-25T12:44:56.667Z,15.27
2023-01-25T12:47:33.035Z,16.73
2023-01-25T12:50:09.473Z,17.77
2023-01-25T12:52:42.478Z,17.50
2023-01-25T12:55:17.192Z,18.27
2023-01-25T12:58:14.733Z,18.93
2023-01-25T13:00:53.150Z,17.13
2023-01-25T13:03:33.472Z,17.13
2023-01-25T13:06:19.073Z,17.40
2023-01-25T13:09:04.519Z,16.23
2023-01-25T13:11:38.876Z,17.60
2023-01-25T13:14:20.452Z,17.63
2023-01-25T13:17:08.453Z,18.10
2023-01-25T13:19:39.575Z,20.00
2023-01-25T13:22:06.549Z,18.37
2023-01-25T13:24:35.266Z,16.17
2023-01-25T13:27:24.730Z,18.77
2023-01-25T13:30:34.088Z,18.33
2023-01-25T13:33:07.046Z,18.73
2023-01-25T13:35:36.720Z,17.27
2023-01-25T13:38:32.050Z,18.13
2023-01-25T13:41:04.553Z,18.60
2023-01-25T13:43:31.417Z,18.80
2023-01-25T13:45:57.997Z,19.93
2023-01-25T13:48:28.517Z,18.33
2023-01-25T13:51:00.278Z,17.87
2023-01-25T13:53:31.727Z,18.67
2023-01-25T13:55:58.744Z,16.83
2023-01-25T13:58:33.894Z,17.10
2023-01-25T14:01:06.769Z,15.93
2023-01-25T14:03:48.521Z,16.40
2023-01-25T14:06:25.112Z,16.17
2023-01-25T14:08:54.581Z,14.43
2023-01-25T14:11:23.735Z,15.50
2023-01-25T14:14:04.012Z,15.10
2023-01-25T14:16:31.940Z,14.63
2023-01-25T14:19:26.006Z,13.77
2023-01-25T14:22:11.479Z,15.80
2023-01-25T14:24:38.189Z,15.17
2023-01-25T14:27:05.769Z,15.10
2023-01-25T14:29:35.330Z,15.87
2023-01-25T14:32:04.020Z,15.20
2023-01-25T14:34:30.740Z,14.73
2023-01-25T14:37:20.569Z,15.03
2023-01-25T14:39:49.118Z,15.83
2023-01-25T14:42:17.038Z,15.00
2023-01-25T14:44:44.664Z,13.77
2023-01-25T14:47:31.406Z,14.10
2023-01-25T14:50:33.326Z,14.90
2023-01-25T14:53:08.545Z,12.90
2023-01-25T14:55:36.293Z,13.43
2023-01-25T14:58:03.275Z,12.87
2023-01-25T15:00:34.694Z,14.23
2023-01-25T15:03:04.842Z,13.30
2023-01-25T15:05:35.920Z,13.57
2023-01-25T15:08:08.513Z,13.40
2023-01-25T15:10:37.140Z,13.43
2023-01-25T15:13:18.888Z,13.97
2023-01-25T15:15:57.736Z,13.50
2023-01-25T15:18:41.878Z,13.37
2023-01-25T15:21:14.316Z,14.27
2023-01-25T15:23:43.098Z,12.73
2023-01-25T15:26:14.199Z,12.80
2023-01-25T15:28:40.782Z,12.10
2023-01-25T15:31:11.285Z,13.07
2023-01-25T15:33:39.104Z,13.07
2023-01-25T15:36:05.849Z,13.60
2023-01-25T15:38:32.484Z,13.03
2023-01-25T15:41:01.391Z,13.40
2023-01-25T15:43:28.575Z,13.10
2023-01-25T15:45:57.465Z,13.97
2023-01-25T15:48:30.921Z,14.43
2023-01-25T15:50:57.607Z,14.37
2023-01-25T15:53:24.636Z,12.37
2023-01-25T15:55:58.571Z,14.80
2023-01-25T15:58:31.646Z,16.03
2023-01-25T16:01:00.032Z,13.17
2023-01-25T16:03:27.539Z,12.90
2023-01-25T16:05:58.934Z,13.00
2023-01-25T16:08:25.512Z,12.30
2023-01-25T16:10:52.251Z,11.20
2023-01-25T16:13:18.817Z,11.63
2023-01-25T16:15:49.692Z,12.00
2023-01-25T16:18:16.258Z,13.17
2023-01-25T16:20:43.595Z,12.83
2023-01-25T16:23:11.922Z,13.03
2023-01-25T16:25:41.090Z,12.30
2023-01-25T16:28:14.503Z,12.80
2023-01-25T16:30:41.627Z,13.33
2023-01-25T16:33:08.233Z,13.50
2023-01-25T16:35:34.784Z,12.63
2023-01-25T16:38:01.393Z,12.90
2023-01-25T16:40:36.628Z,13.37
2023-01-25T16:43:04.156Z,13.90
2023-01-25T16:45:31.417Z,13.40
2023-01-25T16:47:58.011Z,12.37
2023-01-25T16:50:24.704Z,12.77
2023-01-25T16:52:51.740Z,13.43
2023-01-25T16:55:19.395Z,12.63
2023-01-25T16:57:50.030Z,13.13
2023-01-25T17:00:17.636Z,12.87
2023-01-25T17:02:58.336Z,13.03
2023-01-25T17:05:29.016Z,12.07
2023-01-25T17:07:55.907Z,12.80
2023-01-25T17:10:22.588Z,12.27
2023-01-25T17:12:49.770Z,12.50
2023-01-25T17:15:19.815Z,13.27
2023-01-25T17:17:46.546Z,14.37
2023-01-25T17:20:13.179Z,13.17
2023-01-25T17:22:40.882Z,12.87
2023-01-25T17:25:07.711Z,13.97
2023-01-25T17:27:34.312Z,14.07
2023-01-25T17:30:00.910Z,12.93
2023-01-25T17:32:28.621Z,13.97
2023-01-25T17:34:58.881Z,13.17
2023-01-25T17:37:25.744Z,13.07
2023-01-25T17:39:52.403Z,13.50
2023-01-25T17:42:19.021Z,11.53
2023-01-25T17:44:45.582Z,13.43
2023-01-25T17:47:12.131Z,12.37
2023-01-25T17:49:38.682Z,12.60
2023-01-25T17:52:05.340Z,11.97
2023-01-25T17:54:31.973Z,12.27
2023-01-25T17:56:58.664Z,13.17
2023-01-25T17:59:25.287Z,12.70
2023-01-25T18:01:52.127Z,13.27
2023-01-25T18:04:20.320Z,12.40
2023-01-25T18:06:46.935Z,11.33
2023-01-25T18:09:13.626Z,12.07
2023-01-25T18:11:40.834Z,11.93
2023-01-25T18:14:10.691Z,11.53
2023-01-25T18:16:39.198Z,11.17
2023-01-25T18:19:06.480Z,11.93
2023-01-25T18:21:33.677Z,12.43
2023-01-25T18:24:07.856Z,12.63
2023-01-25T18:26:36.975Z,10.23
2023-01-25T18:29:45.416Z,10.30
2023-01-25T18:32:12.399Z,11.57
2023-01-25T18:34:41.247Z,11.30
2023-01-25T18:37:18.245Z,10.83
2023-01-25T18:39:50.098Z,12.03
2023-01-25T18:42:17.427Z,11.47
2023-01-25T18:44:48.067Z,10.77
2023-01-25T18:47:18.504Z,13.13
2023-01-25T18:49:49.808Z,12.47
2023-01-25T18:52:18.243Z,12.67
2023-01-25T18:54:45.435Z,12.80
2023-01-25T18:57:13.231Z,11.97
2023-01-25T18:59:40.731Z,12.00
2023-01-25T19:02:09.687Z,13.47
2023-01-25T19:04:36.325Z,14.90
2023-01-25T19:07:03.014Z,11.63
2023-01-25T19:09:30.138Z,12.23
2023-01-25T19:12:00.028Z,11.90
2023-01-25T19:14:28.222Z,11.87
2023-01-25T19:16:54.824Z,10.93
2023-01-25T19:19:24.523Z,11.47
2023-01-25T19:21:51.153Z,12.33
2023-01-25T19:24:22.708Z,12.13
2023-01-25T19:26:49.549Z,11.33
2023-01-25T19:29:16.544Z,12.17
2023-01-25T19:31:43.225Z,12.23
2023-01-25T19:34:09.900Z,13.57
2023-01-25T19:36:38.314Z,12.87
2023-01-25T19:39:09.940Z,13.00
2023-01-25T19:41:38.641Z,12.37
2023-01-25T19:44:10.455Z,13.07
2023-01-25T19:46:37.590Z,17.40
2023-01-25T19:49:06.779Z,11.93
2023-01-25T19:51:36.030Z,12.50
2023-01-25T19:54:17.403Z,12.27
2023-01-25T19:56:46.805Z,14.97
2023-01-25T19:59:21.620Z,13.57
2023-01-25T20:01:48.782Z,15.93
2023-01-25T20:04:20.928Z,12.17
2023-01-25T20:06:48.683Z,13.67
2023-01-25T20:09:17.363Z,12.93
2023-01-25T20:11:56.699Z,11.73
2023-01-25T20:14:23.677Z,14.57
2023-01-25T20:16:52.642Z,14.60
2023-01-25T20:19:20.053Z,15.17
2023-01-25T20:21:46.701Z,13.87
2023-01-25T20:24:13.484Z,14.10
2023-01-25T20:26:42.983Z,12.63
2023-01-25T20:29:11.146Z,12.97
2023-01-25T20:31:43.354Z,12.73
2023-01-25T20:34:16.054Z,11.80
2023-01-25T20:36:43.293Z,11.00
2023-01-25T20:39:13.245Z,10.20
2023-01-25T20:41:39.829Z,11.23
2023-01-25T20:44:10.033Z,10.00
2023-01-25T20:46:38.599Z,9.77
2023-01-25T20:49:07.624Z,10.30
2023-01-25T20:51:35.049Z,9.57
2023-01-25T20:54:01.939Z,9.67
2023-01-25T20:56:28.544Z,11.00
2023-01-25T20:58:55.102Z,10.27
2023-01-25T21:01:24.102Z,11.57
2023-01-25T21:03:54.285Z,9.87
2023-01-25T21:06:20.873Z,9.90
2023-01-25T21:08:47.622Z,10.70
2023-01-25T21:11:17.119Z,10.53
2023-01-25T21:13:43.775Z,9.97
2023-01-25T21:16:13.065Z,10.67
2023-01-25T21:18:45.036Z,11.40
2023-01-25T21:21:13.975Z,10.43
2023-01-25T21:23:42.753Z,9.37
2023-01-25T21:26:14.277Z,11.07
2023-01-25T21:28:41.083Z,10.83
2023-01-25T21:31:17.297Z,10.30
2023-01-25T21:33:44.530Z,10.80
2023-01-25T21:36:15.596Z,11.80
2023-01-25T21:38:43.872Z,11.03
2023-01-25T21:41:16.317Z,10.53
2023-01-25T21:44:01.811Z,9.70
2023-01-25T21:46:28.537Z,10.17
2023-01-25T21:49:18.817Z,10.70
2023-01-25T21:51:50.893Z,10.40
2023-01-25T21:54:19.420Z,10.40
2023-01-25T21:56:47.909Z,10.23
2023-01-25T21:59:15.463Z,9.90
2023-01-25T22:01:45.787Z,10.37
2023-01-25T22:04:14.576Z,10.83
2023-01-25T22:06:41.631Z,10.30
2023-01-25T22:09:08.924Z,10.47
2023-01-25T22:11:36.323Z,10.60
2023-01-25T22:14:03.085Z,9.97
2023-01-25T22:16:30.224Z,9.87
2023-01-25T22:18:56.971Z,9.77
2023-01-25T22:21:27.172Z,10.30
2023-01-25T22:23:54.026Z,11.10
2023-01-25T22:26:24.403Z,10.40
2023-01-25T22:28:52.379Z,9.47
2023-01-25T22:31:23.839Z,10.80
2023-01-25T22:33:51.662Z,10.40
2023-01-25T22:36:20.380Z,10.37
2023-01-25T22:38:47.545Z,9.83
2023-01-25T22:41:20.314Z,9.83
2023-01-25T22:43:46.950Z,10.00
2023-01-25T22:46:17.769Z,11.10
2023-01-25T22:48:45.207Z,12.17
2023-01-25T22:51:14.912Z,12.53
2023-01-25T22:53:41.892Z,12.23
2023-01-25T22:56:18.451Z,13.00
2023-01-25T22:58:46.815Z,12.43
2023-01-25T23:01:19.289Z,11.43
2023-01-25T23:03:46.015Z,12.23
2023-01-25T23:06:15.020Z,11.50
2023-01-25T23:08:42.592Z,10.97
2023-01-25T23:11:12.702Z,10.73
2023-01-25T23:13:39.885Z,10.23
2023-01-25T23:16:08.900Z,11.10
2023-01-25T23:18:51.499Z,10.30
2023-01-25T23:21:20.495Z,9.93
2023-01-25T23:23:47.660Z,9.70
2023-01-25T23:26:15.532Z,10.03
2023-01-25T23:28:43.056Z,9.27
2023-01-25T23:31:18.308Z,8.70
2023-01-25T23:33:50.451Z,9.20
2023-01-25T23:36:19.987Z,9.73
2023-01-25T23:38:47.288Z,9.77
2023-01-25T23:41:15.057Z,9.70
2023-01-25T23:43:43.364Z,10.47
2023-01-25T23:46:10.141Z,10.23
2023-01-25T23:48:36.886Z,10.53
2023-01-25T23:51:03.733Z,10.30
2023-01-25T23:53:33.277Z,10.07
2023-01-25T23:56:06.473Z,10.50
2023-01-25T23:58:35.453Z,10.73
